Fairview Crossroads, South Carolina
Current Conditions -  °F | °C
As of 7:56 AM on Thursday 18 Dec 2014 (Local Time) from KCAE Reporting Station
Broken Clouds Broken Clouds  
Wind Chill: 31°   Ceiling: 15000
Heat Index: 35°   Visibility: 10mi
Dew Point: 33°   Wind: 5mph
Humidity: 92%   Direction: 270°W
Pressure: 30.15"   Gusts: NA
Location:  33.8822°N, 81.433°W
Report Text: KCAE 181256Z 27004KT 10SM BKN150 02/01 A3015 RMK AO2 SLP212 T00170006
Loading
Personal Weather Stations






























Interactive Weather Map New forecast layout! Learn more

10-Day Weather Forecast

Advertisements
Track Severe Weather on mobile